createdAt,value
2019-03-23T00:00:33.341Z,864.40
2019-03-23T00:01:33.213Z,864.43
2019-03-23T00:02:33.081Z,864.41
2019-03-23T00:03:32.951Z,864.42
2019-03-23T00:04:32.820Z,864.38
2019-03-23T00:05:32.699Z,864.43
2019-03-23T00:06:32.560Z,864.39
2019-03-23T00:07:32.432Z,864.36
2019-03-23T00:08:32.301Z,864.42
2019-03-23T00:09:32.165Z,864.37
2019-03-23T00:10:32.036Z,864.39
2019-03-23T00:11:31.907Z,864.39
2019-03-23T00:12:31.777Z,864.34
2019-03-23T00:13:31.646Z,864.34
2019-03-23T00:14:31.521Z,864.34
2019-03-23T00:15:31.383Z,864.38
2019-03-23T00:16:31.252Z,864.35
2019-03-23T00:17:31.121Z,864.35
2019-03-23T00:18:30.990Z,864.33
2019-03-23T00:19:30.862Z,864.34
2019-03-23T00:20:30.730Z,864.37
2019-03-23T00:21:30.599Z,864.35
2019-03-23T00:22:30.468Z,864.37
2019-03-23T00:23:30.339Z,864.36
2019-03-23T00:24:30.208Z,864.38
2019-03-23T00:25:30.077Z,864.37
2019-03-23T00:26:29.945Z,864.42
2019-03-23T00:27:29.815Z,864.38
2019-03-23T00:28:29.688Z,864.39
2019-03-23T00:29:29.554Z,864.38
2019-03-23T00:30:29.424Z,864.38
2019-03-23T00:31:29.293Z,864.37
2019-03-23T00:32:29.163Z,864.36
2019-03-23T00:33:29.034Z,864.35
2019-03-23T00:34:28.905Z,864.33
2019-03-23T00:35:28.775Z,864.33
2019-03-23T00:36:28.652Z,864.30
2019-03-23T00:37:28.512Z,864.27
2019-03-23T00:38:28.387Z,864.30
2019-03-23T00:39:28.248Z,864.29
2019-03-23T00:40:28.118Z,864.27
2019-03-23T00:41:27.988Z,864.24
2019-03-23T00:42:27.857Z,864.24
2019-03-23T00:43:27.727Z,864.24
2019-03-23T00:44:27.601Z,864.22
2019-03-23T00:45:27.470Z,864.18
2019-03-23T00:46:27.334Z,864.14
2019-03-23T00:47:27.203Z,864.13
2019-03-23T00:48:27.075Z,864.10
2019-03-23T00:49:26.946Z,864.13
2019-03-23T00:50:26.812Z,864.14
2019-03-23T00:51:26.682Z,864.11
2019-03-23T00:52:26.559Z,864.16
2019-03-23T00:53:26.421Z,864.16
2019-03-23T00:54:26.295Z,864.14
2019-03-23T00:55:26.158Z,864.16
2019-03-23T00:56:26.028Z,864.17
2019-03-23T00:57:25.899Z,864.14
2019-03-23T00:58:25.767Z,864.14
2019-03-23T00:59:25.636Z,864.15
2019-03-23T01:00:25.512Z,864.13
2019-03-23T01:01:25.376Z,864.08
2019-03-23T01:02:25.245Z,864.11
2019-03-23T01:03:25.116Z,864.09
2019-03-23T01:04:24.984Z,864.10
2019-03-23T01:05:24.852Z,864.09
2019-03-23T01:06:24.723Z,864.08
2019-03-23T01:07:24.591Z,864.07
2019-03-23T01:08:24.462Z,864.04
2019-03-23T01:09:24.331Z,864.03
2019-03-23T01:10:24.200Z,864.04
2019-03-23T01:11:24.069Z,863.99
2019-03-23T01:12:23.941Z,864.00
2019-03-23T01:13:23.815Z,863.95
2019-03-23T01:14:23.677Z,863.97
2019-03-23T01:15:23.548Z,863.95
2019-03-23T01:16:23.418Z,863.97
2019-03-23T01:17:23.286Z,863.92
2019-03-23T01:18:23.157Z,863.89
2019-03-23T01:19:23.032Z,863.90
2019-03-23T01:20:22.892Z,863.86
2019-03-23T01:21:22.769Z,863.89
2019-03-23T01:22:22.630Z,863.89
2019-03-23T01:23:22.501Z,863.91
2019-03-23T01:24:22.371Z,863.91
2019-03-23T01:25:22.241Z,863.88
2019-03-23T01:26:22.112Z,863.84
2019-03-23T01:27:21.979Z,863.83
2019-03-23T01:28:21.847Z,863.84
2019-03-23T01:29:21.716Z,863.83
2019-03-23T01:30:21.587Z,863.82
2019-03-23T01:31:21.455Z,863.84
2019-03-23T01:32:21.323Z,863.79
2019-03-23T01:33:21.197Z,863.81
2019-03-23T01:34:21.060Z,863.81
2019-03-23T01:35:20.934Z,863.81
2019-03-23T01:36:20.800Z,863.79
2019-03-23T01:37:20.682Z,863.80
2019-03-23T01:38:20.540Z,863.81
2019-03-23T01:39:20.406Z,863.84
2019-03-23T01:40:20.280Z,863.79
2019-03-23T01:41:20.148Z,863.82
2019-03-23T01:42:20.015Z,863.80
2019-03-23T01:43:19.884Z,863.78
2019-03-23T01:44:19.755Z,863.80
2019-03-23T01:45:19.624Z,863.81
2019-03-23T01:46:19.493Z,863.84
2019-03-23T01:47:19.363Z,863.80
2019-03-23T01:48:19.233Z,863.85
2019-03-23T01:49:19.102Z,863.85
2019-03-23T01:50:18.971Z,863.83
2019-03-23T01:51:18.838Z,863.84
2019-03-23T01:52:18.714Z,863.82
2019-03-23T01:53:18.584Z,863.82
2019-03-23T01:54:18.449Z,863.78
2019-03-23T01:55:18.320Z,863.80
2019-03-23T01:56:18.185Z,863.81
2019-03-23T01:57:18.058Z,863.79
2019-03-23T01:58:17.927Z,863.79
2019-03-23T01:59:17.794Z,863.76
2019-03-23T02:00:17.663Z,863.76
2019-03-23T02:01:17.540Z,863.76
2019-03-23T02:02:17.399Z,863.75
2019-03-23T02:03:17.269Z,863.73
2019-03-23T02:04:17.144Z,863.70
2019-03-23T02:05:17.010Z,863.73
2019-03-23T02:06:16.878Z,863.75
2019-03-23T02:07:16.749Z,863.69
2019-03-23T02:08:16.617Z,863.71
2019-03-23T02:09:16.486Z,863.71
2019-03-23T02:10:16.361Z,863.70
2019-03-23T02:11:16.223Z,863.70
2019-03-23T02:12:16.093Z,863.74
2019-03-23T02:13:15.963Z,863.68
2019-03-23T02:14:15.832Z,863.71
2019-03-23T02:15:15.703Z,863.69
2019-03-23T02:16:15.573Z,863.71
2019-03-23T02:17:15.442Z,863.71
2019-03-23T02:18:15.308Z,863.71
2019-03-23T02:19:15.175Z,863.68
2019-03-23T02:20:15.045Z,863.68
2019-03-23T02:21:14.920Z,863.68
2019-03-23T02:22:14.790Z,863.71
2019-03-23T02:23:14.656Z,863.68
2019-03-23T02:24:14.522Z,863.65
2019-03-23T02:25:14.393Z,863.71
2019-03-23T02:26:14.265Z,863.72
2019-03-23T02:27:14.131Z,863.71
2019-03-23T02:28:14.001Z,863.70
2019-03-23T02:29:13.871Z,863.69
2019-03-23T02:30:13.741Z,863.72
2019-03-23T02:31:13.628Z,863.67
2019-03-23T02:32:13.480Z,863.69
2019-03-23T02:33:13.360Z,863.70
2019-03-23T02:34:13.214Z,863.68
2019-03-23T02:35:13.084Z,863.67
2019-03-23T02:36:12.951Z,863.65
2019-03-23T02:37:12.821Z,863.68
2019-03-23T02:38:12.690Z,863.68
2019-03-23T02:39:12.562Z,863.64
2019-03-23T02:40:12.439Z,863.65
2019-03-23T02:41:12.300Z,863.64
2019-03-23T02:42:12.167Z,863.60
2019-03-23T02:43:12.036Z,863.61
2019-03-23T02:44:11.906Z,863.58
2019-03-23T02:45:11.779Z,863.59
2019-03-23T02:46:11.643Z,863.60
2019-03-23T02:47:11.515Z,863.56
2019-03-23T02:48:11.381Z,863.57
2019-03-23T02:49:11.251Z,863.60
2019-03-23T02:50:11.126Z,863.60
2019-03-23T02:51:10.996Z,863.60
2019-03-23T02:52:10.865Z,863.59
2019-03-23T02:53:10.728Z,863.55
2019-03-23T02:54:10.612Z,863.58
2019-03-23T02:55:10.472Z,863.59
2019-03-23T02:56:10.336Z,863.61
2019-03-23T02:57:10.202Z,863.54
2019-03-23T02:58:10.074Z,863.64
2019-03-23T02:59:09.940Z,863.59
2019-03-23T03:00:09.813Z,863.63
2019-03-23T03:01:09.678Z,863.60
2019-03-23T03:02:09.597Z,863.64
2019-03-23T03:03:09.493Z,863.59
2019-03-23T03:04:09.288Z,863.61
2019-03-23T03:05:09.169Z,863.61
2019-03-23T03:06:09.021Z,863.59
2019-03-23T03:07:08.896Z,863.59
2019-03-23T03:08:08.764Z,863.58
2019-03-23T03:09:08.633Z,863.57
2019-03-23T03:10:08.501Z,863.57
2019-03-23T03:11:08.374Z,863.58
2019-03-23T03:12:08.237Z,863.57
2019-03-23T03:13:08.106Z,863.60
2019-03-23T03:14:07.976Z,863.58
2019-03-23T03:15:07.846Z,863.58
2019-03-23T03:16:07.718Z,863.56
2019-03-23T03:17:07.583Z,863.56
2019-03-23T03:18:07.451Z,863.55
2019-03-23T03:19:07.321Z,863.60
2019-03-23T03:20:07.190Z,863.57
2019-03-23T03:21:07.062Z,863.56
2019-03-23T03:22:06.925Z,863.55
2019-03-23T03:23:06.795Z,863.54
2019-03-23T03:24:06.664Z,863.48
2019-03-23T03:25:06.534Z,863.54
2019-03-23T03:26:06.408Z,863.52
2019-03-23T03:27:06.270Z,863.51
2019-03-23T03:28:06.142Z,863.50
2019-03-23T03:29:06.008Z,863.53
2019-03-23T03:30:05.894Z,863.52
2019-03-23T03:31:05.767Z,863.52
2019-03-23T03:32:05.614Z,863.54
2019-03-23T03:33:05.535Z,863.54
2019-03-23T03:34:05.371Z,863.55
2019-03-23T03:35:05.221Z,863.52
2019-03-23T03:36:05.090Z,863.53
2019-03-23T03:37:04.961Z,863.53
2019-03-23T03:38:04.827Z,863.49
2019-03-23T03:39:04.700Z,863.47
2019-03-23T03:40:04.566Z,863.49
2019-03-23T03:41:04.438Z,863.46
2019-03-23T03:42:04.306Z,863.45
2019-03-23T03:43:04.181Z,863.47
2019-03-23T03:44:04.042Z,863.45
2019-03-23T03:45:03.913Z,863.44
2019-03-23T03:46:03.785Z,863.45
2019-03-23T03:47:03.648Z,863.44
2019-03-23T03:48:03.518Z,863.45
2019-03-23T03:49:12.262Z,863.43
2019-03-23T03:50:03.260Z,863.43
2019-03-23T03:51:03.128Z,863.44
2019-03-23T03:52:02.994Z,863.40
2019-03-23T03:53:02.876Z,863.43
2019-03-23T03:54:02.739Z,863.42
2019-03-23T03:55:02.601Z,863.41
2019-03-23T03:56:02.537Z,863.44
2019-03-23T03:57:02.342Z,863.42
2019-03-23T03:58:02.212Z,863.42
2019-03-23T03:59:02.082Z,863.43
2019-03-23T04:00:02.019Z,863.42
2019-03-23T04:01:01.829Z,863.44
2019-03-23T04:02:01.691Z,863.39
2019-03-23T04:03:01.556Z,863.44
2019-03-23T04:04:01.422Z,863.41
2019-03-23T04:05:01.311Z,863.42
2019-03-23T04:06:01.158Z,863.39
2019-03-23T04:07:01.029Z,863.42
2019-03-23T04:08:10.947Z,863.38
2019-03-23T04:09:00.766Z,863.41
2019-03-23T04:10:00.661Z,863.41
2019-03-23T04:11:00.505Z,863.38
2019-03-23T04:12:00.373Z,863.40
2019-03-23T04:13:00.239Z,863.42
2019-03-23T04:14:00.114Z,863.42
2019-03-23T04:14:59.988Z,863.41
2019-03-23T04:15:59.847Z,863.44
2019-03-23T04:16:59.722Z,863.42
2019-03-23T04:17:59.593Z,863.45
2019-03-23T04:18:59.452Z,863.44
2019-03-23T04:19:59.385Z,863.42
2019-03-23T04:20:59.192Z,863.45
2019-03-23T04:21:59.064Z,863.43
2019-03-23T04:22:58.928Z,863.50
2019-03-23T04:23:58.796Z,863.53
2019-03-23T04:24:58.666Z,863.51
2019-03-23T04:25:58.536Z,863.53
2019-03-23T04:26:58.403Z,863.53
2019-03-23T04:27:58.275Z,863.54
2019-03-23T04:28:58.145Z,863.55
2019-03-23T04:29:58.013Z,863.56
2019-03-23T04:30:57.881Z,863.55
2019-03-23T04:31:57.748Z,863.56
2019-03-23T04:32:57.615Z,863.60
2019-03-23T04:33:57.487Z,863.59
2019-03-23T04:34:57.354Z,863.62
2019-03-23T04:35:57.225Z,863.61
2019-03-23T04:36:57.097Z,863.64
2019-03-23T04:37:56.959Z,863.62
2019-03-23T04:38:56.829Z,863.66
2019-03-23T04:39:56.699Z,863.65
2019-03-23T04:40:56.566Z,863.63
2019-03-23T04:41:56.436Z,863.67
2019-03-23T04:42:56.301Z,863.70
2019-03-23T04:43:56.173Z,863.68
2019-03-23T04:44:56.043Z,863.67
2019-03-23T04:45:55.909Z,863.66
2019-03-23T04:46:55.792Z,863.66
2019-03-23T04:47:55.644Z,863.67
2019-03-23T04:48:55.515Z,863.65
2019-03-23T04:49:55.391Z,863.65
2019-03-23T04:50:55.252Z,863.69
2019-03-23T04:51:55.122Z,863.67
2019-03-23T04:52:54.992Z,863.64
2019-03-23T04:53:54.858Z,863.68
2019-03-23T04:54:54.742Z,863.69
2019-03-23T04:55:54.599Z,863.68
2019-03-23T04:56:54.466Z,863.71
2019-03-23T04:57:54.332Z,863.71
2019-03-23T04:58:54.202Z,863.71
2019-03-23T04:59:54.069Z,863.71
2019-03-23T05:00:53.955Z,863.72
2019-03-23T05:01:53.807Z,863.71
2019-03-23T05:02:53.677Z,863.66
2019-03-23T05:03:53.546Z,863.73
2019-03-23T05:04:53.416Z,863.67
2019-03-23T05:05:53.284Z,863.72
2019-03-23T05:06:53.152Z,863.71
2019-03-23T05:07:53.019Z,863.71
2019-03-23T05:08:52.890Z,863.70
2019-03-23T05:09:52.758Z,863.70
2019-03-23T05:10:52.628Z,863.71
2019-03-23T05:11:52.497Z,863.70
2019-03-23T05:12:52.365Z,863.68
2019-03-23T05:13:52.234Z,863.72
2019-03-23T05:14:52.100Z,863.72
2019-03-23T05:15:51.972Z,863.73
2019-03-23T05:16:51.841Z,863.71
2019-03-23T05:17:51.711Z,863.73
2019-03-23T05:18:51.586Z,863.72
2019-03-23T05:19:51.445Z,863.73
2019-03-23T05:20:51.313Z,863.74
2019-03-23T05:21:51.186Z,863.72
2019-03-23T05:22:51.056Z,863.74
2019-03-23T05:23:50.920Z,863.75
2019-03-23T05:24:50.791Z,863.72
2019-03-23T05:25:50.660Z,863.74
2019-03-23T05:26:50.527Z,863.75
2019-03-23T05:27:50.399Z,863.75
2019-03-23T05:28:50.264Z,863.73
2019-03-23T05:29:50.135Z,863.77
2019-03-23T05:30:50.000Z,863.77
2019-03-23T05:31:49.878Z,863.76
2019-03-23T05:32:49.739Z,863.79
2019-03-23T05:33:49.607Z,863.80
2019-03-23T05:34:49.478Z,863.77
2019-03-23T05:35:49.345Z,863.77
2019-03-23T05:36:49.212Z,863.76
2019-03-23T05:37:49.081Z,863.81
2019-03-23T05:38:48.955Z,863.80
2019-03-23T05:39:48.820Z,863.82
2019-03-23T05:40:48.685Z,863.81
2019-03-23T05:41:48.555Z,863.78
2019-03-23T05:42:48.427Z,863.81
2019-03-23T05:43:48.292Z,863.80
2019-03-23T05:44:48.161Z,863.83
2019-03-23T05:45:48.032Z,863.82
2019-03-23T05:46:47.902Z,863.78
2019-03-23T05:47:47.767Z,863.80
2019-03-23T05:48:47.636Z,863.80
2019-03-23T05:49:47.507Z,863.82
2019-03-23T05:50:47.381Z,863.81
2019-03-23T05:51:47.245Z,863.80
2019-03-23T05:52:47.113Z,863.82
2019-03-23T05:53:46.986Z,863.83
2019-03-23T05:54:46.849Z,863.82
2019-03-23T05:55:46.758Z,863.84
2019-03-23T05:56:46.589Z,863.81
2019-03-23T05:57:46.453Z,863.85
2019-03-23T05:58:46.323Z,863.84
2019-03-23T05:59:46.193Z,863.86
2019-03-23T06:00:46.062Z,863.86
2019-03-23T06:01:45.931Z,863.84
2019-03-23T06:02:45.801Z,863.88
2019-03-23T06:03:45.668Z,863.85
2019-03-23T06:04:45.538Z,863.86
2019-03-23T06:05:45.408Z,863.85
2019-03-23T06:06:45.276Z,863.87
2019-03-23T06:07:45.144Z,863.85
2019-03-23T06:08:54.641Z,863.84
2019-03-23T06:09:44.882Z,863.81
2019-03-23T06:10:44.756Z,863.85
2019-03-23T06:11:44.620Z,863.88
2019-03-23T06:12:44.487Z,863.86
2019-03-23T06:13:44.353Z,863.89
2019-03-23T06:14:44.223Z,863.90
2019-03-23T06:15:44.091Z,863.90
2019-03-23T06:16:43.960Z,863.88
2019-03-23T06:17:43.829Z,863.91
2019-03-23T06:18:43.700Z,863.92
2019-03-23T06:19:43.572Z,863.89
2019-03-23T06:20:43.437Z,863.85
2019-03-23T06:21:43.304Z,863.91
2019-03-23T06:22:43.179Z,863.87
2019-03-23T06:23:43.049Z,863.90
2019-03-23T06:24:42.913Z,863.90
2019-03-23T06:25:42.784Z,863.89
2019-03-23T06:26:42.655Z,863.91
2019-03-23T06:27:42.519Z,863.91
2019-03-23T06:28:42.387Z,863.90
2019-03-23T06:29:42.258Z,863.91
2019-03-23T06:30:42.126Z,863.89
2019-03-23T06:31:41.997Z,863.91
2019-03-23T06:32:41.869Z,863.90
2019-03-23T06:33:41.733Z,863.92
2019-03-23T06:34:41.608Z,863.93
2019-03-23T06:35:41.477Z,863.93
2019-03-23T06:36:41.345Z,863.91
2019-03-23T06:37:41.218Z,863.86
2019-03-23T06:38:41.096Z,863.86
2019-03-23T06:39:40.952Z,863.87
2019-03-23T06:40:40.820Z,863.86
2019-03-23T06:41:40.694Z,863.85
2019-03-23T06:42:40.560Z,863.87
2019-03-23T06:43:40.430Z,863.83
2019-03-23T06:44:40.303Z,863.78
2019-03-23T06:45:40.170Z,863.79
2019-03-23T06:46:40.041Z,863.78
2019-03-23T06:47:39.913Z,863.80
2019-03-23T06:48:39.784Z,863.76
2019-03-23T06:49:39.658Z,863.79
2019-03-23T06:50:39.523Z,863.77
2019-03-23T06:51:39.394Z,863.75
2019-03-23T06:52:39.270Z,863.78
2019-03-23T06:53:39.136Z,863.79
2019-03-23T06:54:39.007Z,863.74
2019-03-23T06:55:38.879Z,863.72
2019-03-23T06:56:38.750Z,863.75
2019-03-23T06:57:38.623Z,863.73
2019-03-23T06:58:38.827Z,863.72
2019-03-23T06:59:38.371Z,863.76
2019-03-23T07:00:38.239Z,863.71
2019-03-23T07:01:38.106Z,863.74
2019-03-23T07:02:37.982Z,863.71
2019-03-23T07:03:37.851Z,863.76
2019-03-23T07:04:37.727Z,863.78
2019-03-23T07:05:37.595Z,863.75
2019-03-23T07:06:37.464Z,863.75
2019-03-23T07:07:37.335Z,863.75
2019-03-23T07:08:37.211Z,863.75
2019-03-23T07:09:37.082Z,863.73
2019-03-23T07:10:36.950Z,863.70
2019-03-23T07:11:36.825Z,863.71
2019-03-23T07:12:36.695Z,863.71
2019-03-23T07:13:36.567Z,863.72
2019-03-23T07:14:36.440Z,863.73
2019-03-23T07:15:36.316Z,863.70
2019-03-23T07:16:36.188Z,863.73
2019-03-23T07:17:36.059Z,863.73
2019-03-23T07:18:35.930Z,863.72
2019-03-23T07:19:35.801Z,863.72
2019-03-23T07:20:35.680Z,863.74
2019-03-23T07:21:35.549Z,863.74
2019-03-23T07:22:35.421Z,863.74
2019-03-23T07:23:35.295Z,863.76
2019-03-23T07:24:35.172Z,863.77
2019-03-23T07:25:35.039Z,863.76
2019-03-23T07:26:34.913Z,863.74
2019-03-23T07:27:34.785Z,863.75
2019-03-23T07:28:34.658Z,863.76
2019-03-23T07:29:34.532Z,863.79
2019-03-23T07:30:34.406Z,863.76
2019-03-23T07:31:34.281Z,863.76
2019-03-23T07:32:34.152Z,863.78
2019-03-23T07:33:34.023Z,863.79
2019-03-23T07:34:33.900Z,863.78
2019-03-23T07:35:33.772Z,863.80
2019-03-23T07:36:33.644Z,863.77
2019-03-23T07:37:33.526Z,863.80
2019-03-23T07:38:33.391Z,863.76
2019-03-23T07:39:33.266Z,863.73
2019-03-23T07:40:33.151Z,863.72
2019-03-23T07:41:33.015Z,863.71
2019-03-23T07:42:32.890Z,863.70
2019-03-23T07:43:32.761Z,863.70
2019-03-23T07:44:32.634Z,863.71
2019-03-23T07:45:32.509Z,863.74
2019-03-23T07:46:32.383Z,863.71
2019-03-23T07:47:32.259Z,863.67
2019-03-23T07:48:32.129Z,863.66
2019-03-23T07:49:32.007Z,863.67
2019-03-23T07:50:31.899Z,863.66
2019-03-23T07:51:31.759Z,863.63
2019-03-23T07:52:31.626Z,863.65
2019-03-23T07:53:31.503Z,863.63
2019-03-23T07:54:31.380Z,863.59
2019-03-23T07:55:31.251Z,863.63
2019-03-23T07:56:31.125Z,863.67
2019-03-23T07:57:31.010Z,863.65
2019-03-23T07:58:30.874Z,863.66
2019-03-23T07:59:30.752Z,863.65
2019-03-23T08:00:30.623Z,863.65
2019-03-23T08:01:30.500Z,863.66
2019-03-23T08:02:30.373Z,863.70
2019-03-23T08:03:30.249Z,863.67
2019-03-23T08:04:30.123Z,863.67
2019-03-23T08:05:29.997Z,863.65
2019-03-23T08:06:29.874Z,863.67
2019-03-23T08:07:29.749Z,863.68
2019-03-23T08:08:29.629Z,863.65
2019-03-23T08:09:37.384Z,863.62
2019-03-23T08:10:29.374Z,863.66
2019-03-23T08:11:29.249Z,863.64
2019-03-23T08:12:29.126Z,863.62
2019-03-23T08:13:29.069Z,863.64
2019-03-23T08:14:28.878Z,863.63
2019-03-23T08:15:28.756Z,863.61
2019-03-23T08:16:28.628Z,863.61
2019-03-23T08:17:28.502Z,863.63
2019-03-23T08:18:28.381Z,863.62
2019-03-23T08:19:28.254Z,863.64
2019-03-23T08:20:28.132Z,863.61
2019-03-23T08:21:28.004Z,863.63
2019-03-23T08:22:27.878Z,863.59
2019-03-23T08:23:27.753Z,863.60
2019-03-23T08:24:27.631Z,863.62
2019-03-23T08:25:27.506Z,863.62
2019-03-23T08:26:27.381Z,863.65
2019-03-23T08:27:27.259Z,863.64
2019-03-23T08:28:27.133Z,863.65
2019-03-23T08:29:27.009Z,863.68
2019-03-23T08:30:26.882Z,863.64
2019-03-23T08:31:26.757Z,863.69
2019-03-23T08:32:26.655Z,863.65
2019-03-23T08:33:26.511Z,863.65
2019-03-23T08:34:26.387Z,863.67
2019-03-23T08:35:26.263Z,863.66
2019-03-23T08:36:26.145Z,863.61
2019-03-23T08:37:26.016Z,863.64
2019-03-23T08:38:25.893Z,863.63
2019-03-23T08:39:25.766Z,863.62
2019-03-23T08:40:25.645Z,863.62
2019-03-23T08:41:25.523Z,863.65
2019-03-23T08:42:25.398Z,863.64
2019-03-23T08:43:25.274Z,863.61
2019-03-23T08:44:25.151Z,863.65
2019-03-23T08:45:25.026Z,863.63
2019-03-23T08:46:24.906Z,863.67
2019-03-23T08:47:24.782Z,863.63
2019-03-23T08:48:24.656Z,863.65
2019-03-23T08:49:24.533Z,863.65
2019-03-23T08:50:24.408Z,863.68
2019-03-23T08:51:24.316Z,863.67
2019-03-23T08:52:24.168Z,863.68
2019-03-23T08:53:24.038Z,863.70
2019-03-23T08:54:23.918Z,863.63
2019-03-23T08:55:23.796Z,863.66
2019-03-23T08:56:23.670Z,863.65
2019-03-23T08:57:23.548Z,863.64
2019-03-23T08:58:23.426Z,863.64
2019-03-23T08:59:23.304Z,863.57
2019-03-23T09:00:23.182Z,863.59
2019-03-23T09:01:23.058Z,863.58
2019-03-23T09:02:22.935Z,863.61
2019-03-23T09:03:22.816Z,863.62
2019-03-23T09:04:22.691Z,863.59
2019-03-23T09:05:22.570Z,863.58
2019-03-23T09:06:22.455Z,863.61
2019-03-23T09:07:22.325Z,863.59
2019-03-23T09:08:22.200Z,863.61
2019-03-23T09:09:22.079Z,863.60
2019-03-23T09:10:21.955Z,863.61
2019-03-23T09:11:21.833Z,863.61
2019-03-23T09:12:21.712Z,863.64
2019-03-23T09:13:21.588Z,863.62
2019-03-23T09:14:23.443Z,863.65
2019-03-23T09:15:21.344Z,863.61
2019-03-23T09:16:21.226Z,863.65
2019-03-23T09:17:21.104Z,863.64
2019-03-23T09:18:20.977Z,863.62
2019-03-23T09:19:20.855Z,863.62
2019-03-23T09:20:20.735Z,863.64
2019-03-23T09:21:20.611Z,863.63
2019-03-23T09:22:20.490Z,863.63
2019-03-23T09:23:20.367Z,863.65
2019-03-23T09:24:20.247Z,863.67
2019-03-23T09:25:20.123Z,863.73
2019-03-23T09:26:20.002Z,863.70
2019-03-23T09:27:19.882Z,863.71
2019-03-23T09:28:19.758Z,863.67
2019-03-23T09:29:19.637Z,863.70
2019-03-23T09:30:19.517Z,863.71
2019-03-23T09:31:19.393Z,863.67
2019-03-23T09:32:19.272Z,863.69
2019-03-23T09:33:19.154Z,863.69
2019-03-23T09:34:19.030Z,863.70
2019-03-23T09:35:18.914Z,863.68
2019-03-23T09:36:22.960Z,863.67
2019-03-23T09:37:18.665Z,863.68
2019-03-23T09:38:18.542Z,863.66
2019-03-23T09:39:18.422Z,863.63
2019-03-23T09:40:18.304Z,863.62
2019-03-23T09:41:18.181Z,863.60
2019-03-23T09:42:18.057Z,863.60
2019-03-23T09:43:17.936Z,863.58
2019-03-23T09:44:17.816Z,863.58
2019-03-23T09:45:17.699Z,863.61
2019-03-23T09:46:17.572Z,863.58
2019-03-23T09:47:17.451Z,863.57
2019-03-23T09:48:17.330Z,863.56
2019-03-23T09:49:17.209Z,863.54
2019-03-23T09:50:17.087Z,863.53
2019-03-23T09:51:16.968Z,863.53
2019-03-23T09:52:16.845Z,863.55
2019-03-23T09:53:16.725Z,863.53
2019-03-23T09:54:16.609Z,863.53
2019-03-23T09:55:16.483Z,863.50
2019-03-23T09:56:16.364Z,863.49
2019-03-23T09:57:16.244Z,863.51
2019-03-23T09:58:16.130Z,863.46
2019-03-23T09:59:16.004Z,863.47
2019-03-23T10:00:15.883Z,863.49
2019-03-23T10:01:15.762Z,863.49
2019-03-23T10:02:15.646Z,863.51
2019-03-23T10:03:15.523Z,863.48
2019-03-23T10:04:15.399Z,863.47
2019-03-23T10:05:15.278Z,863.46
2019-03-23T10:06:15.160Z,863.48
2019-03-23T10:07:15.052Z,863.46
2019-03-23T10:08:14.920Z,863.47
2019-03-23T10:09:14.799Z,863.45
2019-03-23T10:10:21.723Z,863.44
2019-03-23T10:11:14.557Z,863.42
2019-03-23T10:12:14.438Z,863.40
2019-03-23T10:13:14.319Z,863.43
2019-03-23T10:14:14.202Z,863.42
2019-03-23T10:15:14.079Z,863.46
2019-03-23T10:16:13.957Z,863.44
2019-03-23T10:17:13.836Z,863.42
2019-03-23T10:18:13.718Z,863.47
2019-03-23T10:19:13.605Z,863.47
2019-03-23T10:20:13.695Z,863.44
2019-03-23T10:21:13.361Z,863.42
2019-03-23T10:22:13.240Z,863.39
2019-03-23T10:23:13.119Z,863.36
2019-03-23T10:24:12.999Z,863.41
2019-03-23T10:25:12.879Z,863.37
2019-03-23T10:26:12.760Z,863.36
2019-03-23T10:27:12.765Z,863.33
2019-03-23T10:28:12.524Z,863.28
2019-03-23T10:29:12.402Z,863.25
2019-03-23T10:30:12.285Z,863.24
2019-03-23T10:31:12.165Z,863.23
2019-03-23T10:32:12.042Z,863.32
2019-03-23T10:33:11.925Z,863.27
2019-03-23T10:34:11.804Z,863.27
2019-03-23T10:35:11.685Z,863.23
2019-03-23T10:36:12.328Z,863.23
2019-03-23T10:37:11.451Z,863.25
2019-03-23T10:38:11.330Z,863.26
2019-03-23T10:39:11.211Z,863.22
2019-03-23T10:40:11.090Z,863.20
2019-03-23T10:41:10.970Z,863.22
2019-03-23T10:42:10.854Z,863.20
2019-03-23T10:43:10.734Z,863.23
2019-03-23T10:44:10.613Z,863.18
2019-03-23T10:45:10.491Z,863.22
2019-03-23T10:46:10.375Z,863.18
2019-03-23T10:47:10.254Z,863.14
2019-03-23T10:48:12.133Z,863.15
2019-03-23T10:49:10.016Z,863.19
2019-03-23T10:50:09.898Z,863.17
2019-03-23T10:51:09.775Z,863.09
2019-03-23T10:52:09.658Z,863.07
2019-03-23T10:53:09.539Z,863.06
2019-03-23T10:54:09.427Z,863.08
2019-03-23T10:55:09.295Z,863.08
2019-03-23T10:56:09.211Z,863.14
2019-03-23T10:57:09.054Z,863.08
2019-03-23T10:58:08.939Z,863.05
2019-03-23T10:59:08.815Z,863.08
2019-03-23T11:00:08.695Z,863.07
2019-03-23T11:01:08.575Z,863.07
2019-03-23T11:02:08.455Z,863.06
2019-03-23T11:03:08.335Z,863.00
2019-03-23T11:04:08.218Z,863.06
2019-03-23T11:05:08.097Z,863.07
2019-03-23T11:06:07.974Z,863.12
2019-03-23T11:07:07.857Z,863.12
2019-03-23T11:08:07.742Z,863.07
2019-03-23T11:09:07.617Z,863.07
2019-03-23T11:10:07.500Z,863.06
2019-03-23T11:11:07.383Z,863.03
2019-03-23T11:12:07.258Z,862.99
2019-03-23T11:13:07.134Z,863.02
2019-03-23T11:14:07.017Z,863.01
2019-03-23T11:15:06.898Z,863.00
2019-03-23T11:16:06.779Z,863.00
2019-03-23T11:17:06.660Z,862.98
2019-03-23T11:18:06.542Z,862.95
2019-03-23T11:19:13.355Z,862.92
2019-03-23T11:20:06.301Z,862.89
2019-03-23T11:21:06.182Z,862.90
2019-03-23T11:22:06.063Z,862.91
2019-03-23T11:23:05.944Z,862.91
2019-03-23T11:24:05.825Z,862.93
2019-03-23T11:25:05.705Z,862.91
2019-03-23T11:26:05.587Z,862.93
2019-03-23T11:27:05.467Z,862.89
2019-03-23T11:28:05.350Z,862.88
2019-03-23T11:29:05.229Z,862.86
2019-03-23T11:30:05.113Z,862.83
2019-03-23T11:31:04.999Z,862.76
2019-03-23T11:32:04.876Z,862.82
2019-03-23T11:33:04.753Z,862.81
2019-03-23T11:34:04.635Z,862.75
2019-03-23T11:35:04.537Z,862.79
2019-03-23T11:36:04.397Z,862.73
2019-03-23T11:37:04.307Z,862.78
2019-03-23T11:38:04.234Z,862.77
2019-03-23T11:39:04.042Z,862.74
2019-03-23T11:40:03.931Z,862.71
2019-03-23T11:41:03.804Z,862.73
2019-03-23T11:42:03.686Z,862.71
2019-03-23T11:43:03.562Z,862.73
2019-03-23T11:44:03.447Z,862.73
2019-03-23T11:45:03.336Z,862.65
2019-03-23T11:46:03.206Z,862.66
2019-03-23T11:47:03.089Z,862.67
2019-03-23T11:48:02.997Z,862.67
2019-03-23T11:49:03.111Z,862.69
2019-03-23T11:50:02.732Z,862.64
2019-03-23T11:51:02.613Z,862.68
2019-03-23T11:52:02.499Z,862.65
2019-03-23T11:53:02.372Z,862.63
2019-03-23T11:54:02.256Z,862.67
2019-03-23T11:55:02.137Z,862.61
2019-03-23T11:56:02.061Z,862.58
2019-03-23T11:57:01.898Z,862.61
2019-03-23T11:58:01.778Z,862.63
2019-03-23T11:59:01.668Z,862.67
2019-03-23T12:00:01.543Z,862.66
2019-03-23T12:01:01.422Z,862.59
2019-03-23T12:02:01.303Z,862.62
2019-03-23T12:03:01.183Z,862.59
2019-03-23T12:04:01.070Z,862.62
2019-03-23T12:05:00.947Z,862.60
2019-03-23T12:06:00.834Z,862.59
2019-03-23T12:07:00.711Z,862.57
2019-03-23T12:08:00.592Z,862.55
2019-03-23T12:09:00.472Z,862.53
2019-03-23T12:10:00.355Z,862.52
2019-03-23T12:11:03.109Z,862.52
2019-03-23T12:12:00.118Z,862.53
2019-03-23T12:12:59.998Z,862.46
2019-03-23T12:13:59.881Z,862.50
2019-03-23T12:14:59.767Z,862.47
2019-03-23T12:15:59.645Z,862.44
2019-03-23T12:16:59.524Z,862.48
2019-03-23T12:17:59.414Z,862.45
2019-03-23T12:18:59.327Z,862.42
2019-03-23T12:19:59.171Z,862.45
2019-03-23T12:20:59.053Z,862.40
2019-03-23T12:21:58.934Z,862.36
2019-03-23T12:22:58.821Z,862.31
2019-03-23T12:23:58.698Z,862.33
2019-03-23T12:24:58.577Z,862.34
2019-03-23T12:25:58.457Z,862.32
2019-03-23T12:26:58.339Z,862.34